Aklavik, Northwest Territories

12:21 AM MST on March 03, 2015 (GMT -0700)
Zubko | Change Station
CLOSE
Current Station
Airport
Location: Inuvik,
Elevation: 223 ft
Nearby Weather Stations

Elev 223 ft 68.31 °N, 133.50 °W | Updated 21 minutes ago

Clear
Clear
1 °F
Feels Like -14 °F
N
10
Wind Variable Wind from ESE

Today is forecast to be nearly the same temperature as yesterday.

Today
High -- | Low -- °F
--% Chance of Precip.
Yesterday
High -- | Low -- °F
Precip. -- in
9:11 AM 7:13 PM
Waxing Gibbous, 95% visible
Pressure 30.33 in
Visibility 15.0 miles
Clouds Clear
Windchill -14 °F
Dew Point -11 °F
Humidity 56%
Rainfall 0.00 in
Snow Depth Not available.
UV 0 out of 12
Pollen Not available.
Air Quality Not available.
Flu Activity Not available.
METAR CYEV 030700Z 12009KT 15SM SKC M17/M24 A3030 RMK SLP271

More Conditions Fewer Conditions

Pressure 30.33 in
Visibility 15.0 miles
Clouds Clear
Windchill -14 °F
Dew Point -11 °F
Humidity 56%
Rainfall 0.00 in
Snow Depth Not available.
UV 0 out of 12
Pollen Not available.
Air Quality Not available.
Flu Activity Not available.
METAR CYEV 030700Z 12009KT 15SM SKC M17/M24 A3030 RMK SLP271

More Conditions Fewer Conditions

10-Day Weather Forecast

Almanac

Astronomy

Mar. 03, 2015 Rise Set
Actual Time
Civil Twilight
Nautical Twilight
Astronomical Twilight
Moon
Length of Visible Light
Length of Day
Tomorrow will be .
, % of the Moon is Illuminated

Today's Extremes

Country Highs Country Lows

Community

WunderPhotos

Upload Photos

1,802,073 photos uploaded!

WunderBlogs® & News

Nearby

Air Quality

  Air Quality AQ Index Pollutant
Not available.

Snow Depth

Station Depth Elevation

Earthquake Activity

City Distance Mag. Time & Date
Minimum magnitude displayed is 2.5.

Coastal Water Temperatures

Place Temperature

Nearby Weather Stations